首页
METAR-TAF:

METAR-TAF

机场 :

克拉列沃, 塞尔维亚

纬度: 43-49-07N, 经度: 020-35-07E, 海拔: 209米

当前天气观测

该预报发布于19分钟前的20:00 UTC
风速3节,风向,在北转西北东北之间变化
温度 19°C
湿度 88%
气压 1008 hPa
能见度10公里或以上
散云层高于4500英尺

METAR: LYKV 052000Z 36003KT 330V040 9999 SCT045 19/17 Q1008 NOSIG

时间: 22:19 (20:19 UTC)

预报

该预报发布于3小时和19分钟前的17:00 UTC
预报有效从05日的 18点(UTC)到 06日的 18点(UTC)
风速4节,风向南转南东
能见度10公里或以上
散云层高于5000英尺
短暂存在
从 06日的 14点(UTC)到 06日的 18点(UTC)
风速15节,风向多变
能見度: 4000
散云层高于2700英尺, 积雨云.
多云层高于3500英尺
雷暴, 雨

TAF: LYKV 051700Z 0518/0618 15004KT 9999 SCT050 TX24/0613Z TN12/0603Z TEMPO 0614/0618 VRB15KT 4000 TSRA SCT027CB BKN035

超过4000个机场的气象观测和天气预报(METAR&TAF报告)。

可查询的气象台以黄色和红色小点在地图上表示。

将鼠标移到小点上方,可查看气象台名称。

然后点击查看天气观测和预报。

如需切换地图:点击带黑十字的绿色按钮放大地图;点击带横线的绿色按钮缩小地图;或者点击绿色箭头查看邻近地区的地图。


METAR-TAF: